createdAt,value
2022-08-26T00:02:33.984Z,13.00
2022-08-26T00:07:27.122Z,19.70
2022-08-26T00:11:26.978Z,16.10
2022-08-26T00:12:52.613Z,18.40
2022-08-26T00:18:38.828Z,20.90
2022-08-26T00:21:33.579Z,25.10
2022-08-26T00:25:27.887Z,26.60
2022-08-26T00:26:56.913Z,29.10
2022-08-26T00:28:26.946Z,27.80
2022-08-26T00:30:54.179Z,26.10
2022-08-26T00:35:23.121Z,36.40
2022-08-26T00:38:19.539Z,32.00
2022-08-26T00:41:45.723Z,35.00
2022-08-26T00:43:15.520Z,32.90
2022-08-26T00:45:41.947Z,35.80
2022-08-26T00:47:40.545Z,36.50
2022-08-26T00:49:11.943Z,40.50
2022-08-26T00:51:07.672Z,43.00
2022-08-26T00:52:56.415Z,40.50
2022-08-26T00:58:22.451Z,42.90
2022-08-26T00:59:52.279Z,43.50
2022-08-26T01:02:26.319Z,44.70
2022-08-26T01:05:14.968Z,44.90
2022-08-26T01:07:42.758Z,45.70
2022-08-26T01:09:40.873Z,40.80
2022-08-26T01:12:29.684Z,52.70
2022-08-26T01:13:58.745Z,48.80
2022-08-26T01:17:46.075Z,50.80
2022-08-26T01:19:15.989Z,46.60
2022-08-26T01:21:14.517Z,46.90
2022-08-26T01:29:00.898Z,49.30
2022-08-26T01:32:26.259Z,50.80
2022-08-26T01:34:55.337Z,46.60
2022-08-26T01:36:53.931Z,53.20
2022-08-26T01:45:09.947Z,50.00
2022-08-26T01:50:06.545Z,53.70
2022-08-26T01:51:35.548Z,48.60
2022-08-26T01:53:24.570Z,54.90
2022-08-26T01:54:53.757Z,48.70
2022-08-26T01:56:52.031Z,49.80
2022-08-26T02:00:09.231Z,50.60
2022-08-26T02:05:04.986Z,46.10
2022-08-26T02:12:31.060Z,53.60
2022-08-26T02:18:23.669Z,55.40
2022-08-26T02:22:38.092Z,53.80
2022-08-26T02:24:07.091Z,54.10
2022-08-26T02:31:19.248Z,52.70
2022-08-26T02:32:49.586Z,59.10
2022-08-26T02:34:54.655Z,55.70
2022-08-26T02:36:23.650Z,58.60
2022-08-26T02:40:18.575Z,55.90
2022-08-26T02:43:15.021Z,55.70
2022-08-26T02:44:43.765Z,55.00
2022-08-26T02:49:29.322Z,53.00
2022-08-26T02:53:25.659Z,57.40
2022-08-26T02:55:52.446Z,56.40
2022-08-26T02:58:20.532Z,49.00
2022-08-26T03:02:43.864Z,49.80
2022-08-26T03:07:07.421Z,54.20
2022-08-26T03:12:01.941Z,48.20
2022-08-26T03:14:57.967Z,56.50
2022-08-26T03:19:42.907Z,46.00
2022-08-26T03:23:36.752Z,46.00
2022-08-26T03:25:05.816Z,49.10
2022-08-26T03:27:33.164Z,50.30
2022-08-26T03:29:02.217Z,50.40
2022-08-26T03:34:54.595Z,44.60
2022-08-26T03:45:09.346Z,47.00
2022-08-26T03:53:28.148Z,46.80
2022-08-26T04:02:34.013Z,42.70
2022-08-26T04:05:59.357Z,37.60
2022-08-26T04:09:54.109Z,38.00
2022-08-26T04:18:46.938Z,34.50
2022-08-26T04:22:10.377Z,30.40
2022-08-26T04:30:30.339Z,34.40
2022-08-26T04:33:32.406Z,37.40
2022-08-26T04:34:56.527Z,29.40
2022-08-26T04:40:18.192Z,32.80
2022-08-26T04:48:06.330Z,31.40
2022-08-26T04:51:03.353Z,28.30
2022-08-26T04:55:56.250Z,29.80
2022-08-26T05:01:16.923Z,28.20
2022-08-26T05:02:45.913Z,31.40
2022-08-26T05:07:09.833Z,29.60
2022-08-26T05:11:04.013Z,28.90
2022-08-26T05:14:29.272Z,34.70
2022-08-26T05:16:27.628Z,25.90
2022-08-26T05:24:43.692Z,31.80
2022-08-26T05:28:38.244Z,32.20
2022-08-26T05:37:24.686Z,29.30
2022-08-26T05:42:46.419Z,27.50
2022-08-26T05:47:39.326Z,26.30
2022-08-26T05:50:35.736Z,31.80
2022-08-26T05:55:58.126Z,24.40
2022-08-26T05:58:26.707Z,28.80
2022-08-26T06:05:43.804Z,28.50
2022-08-26T06:08:11.041Z,33.00
2022-08-26T06:13:11.935Z,24.50
2022-08-26T06:14:34.280Z,30.70
2022-08-26T06:16:32.533Z,29.00
2022-08-26T06:18:30.566Z,26.00
2022-08-26T06:19:59.565Z,28.50
2022-08-26T06:24:43.395Z,35.50
2022-08-26T06:26:13.549Z,29.80
2022-08-26T06:29:09.718Z,36.60
2022-08-26T06:30:39.271Z,28.50
2022-08-26T06:32:08.805Z,32.50
2022-08-26T06:36:02.896Z,29.40
2022-08-26T06:39:33.469Z,29.00
2022-08-26T06:46:22.808Z,33.30
2022-08-26T06:51:54.838Z,38.70
2022-08-26T06:53:52.891Z,28.90
2022-08-26T07:11:34.106Z,34.00
2022-08-26T07:13:03.149Z,43.40
2022-08-26T07:16:03.060Z,23.00
2022-08-26T07:17:28.466Z,28.20
2022-08-26T07:19:55.693Z,33.70
2022-08-26T07:22:34.539Z,25.50
2022-08-26T07:25:01.277Z,22.00
2022-08-26T07:26:30.369Z,29.30
2022-08-26T07:28:57.871Z,30.30
2022-08-26T07:31:25.073Z,21.60
2022-08-26T07:36:48.290Z,21.30
2022-08-26T07:38:46.229Z,19.30
2022-08-26T07:42:40.797Z,17.20
2022-08-26T07:45:08.142Z,20.60
2022-08-26T07:47:10.584Z,22.10
2022-08-26T07:49:05.302Z,21.50
2022-08-26T07:52:01.869Z,23.10
2022-08-26T07:55:27.719Z,19.40
2022-08-26T07:57:25.980Z,19.00
2022-08-26T07:59:24.279Z,18.00
2022-08-26T08:02:40.317Z,16.20
2022-08-26T08:06:27.326Z,20.70
2022-08-26T08:08:58.060Z,17.10
2022-08-26T08:12:18.947Z,16.30
2022-08-26T08:14:19.280Z,15.50
2022-08-26T08:16:17.493Z,14.30
2022-08-26T08:23:28.654Z,14.70
2022-08-26T08:28:51.173Z,11.80
2022-08-26T08:30:22.662Z,14.20
2022-08-26T08:31:56.976Z,12.60
2022-08-26T08:35:58.252Z,16.00
2022-08-26T08:38:56.348Z,13.30
2022-08-26T08:41:51.865Z,11.60
2022-08-26T08:47:34.088Z,15.20
2022-08-26T08:57:39.825Z,12.80
2022-08-26T09:01:44.952Z,8.60
2022-08-26T09:05:42.603Z,10.70
2022-08-26T09:07:39.274Z,13.20
2022-08-26T09:12:32.170Z,10.80
2022-08-26T09:16:50.692Z,8.20
2022-08-26T09:21:35.934Z,10.40
2022-08-26T09:23:02.694Z,11.70
2022-08-26T09:27:17.233Z,11.90
2022-08-26T09:30:13.931Z,11.30
2022-08-26T09:32:43.135Z,7.60
2022-08-26T09:36:03.053Z,7.70
2022-08-26T09:38:05.445Z,10.70
2022-08-26T09:42:20.042Z,10.40
2022-08-26T09:46:06.655Z,9.50
2022-08-26T09:57:12.161Z,7.70
2022-08-26T10:00:00.156Z,5.00
2022-08-26T10:12:32.223Z,6.90
2022-08-26T10:16:58.496Z,12.00
2022-08-26T10:18:28.768Z,10.10
2022-08-26T10:21:14.409Z,8.10
2022-08-26T10:26:01.072Z,8.30
2022-08-26T10:31:27.777Z,9.80
2022-08-26T10:33:20.614Z,10.90
2022-08-26T10:37:16.489Z,9.60
2022-08-26T10:43:40.832Z,12.60
2022-08-26T10:45:37.352Z,11.70
2022-08-26T10:47:06.579Z,15.50
2022-08-26T10:48:35.990Z,7.40
2022-08-26T10:53:59.260Z,10.30
2022-08-26T10:57:01.911Z,7.30
2022-08-26T10:58:30.777Z,7.20
2022-08-26T11:02:59.540Z,9.90
2022-08-26T11:04:28.610Z,6.00
2022-08-26T11:11:02.534Z,7.10
2022-08-26T11:12:30.414Z,10.10
2022-08-26T11:17:48.007Z,11.50
2022-08-26T11:19:20.938Z,9.10
2022-08-26T11:21:01.298Z,10.90
2022-08-26T11:22:30.898Z,6.00
2022-08-26T11:23:59.797Z,8.70
2022-08-26T11:27:44.090Z,8.10
2022-08-26T11:30:21.072Z,8.70
2022-08-26T11:32:31.544Z,6.00
2022-08-26T11:34:35.842Z,14.10
2022-08-26T11:37:29.591Z,9.40
2022-08-26T11:48:34.130Z,8.90
2022-08-26T11:50:32.272Z,3.90
2022-08-26T11:54:57.113Z,6.30
2022-08-26T11:59:00.184Z,8.90
2022-08-26T12:02:29.596Z,6.10
2022-08-26T12:09:33.379Z,5.10
2022-08-26T12:18:29.188Z,6.70
2022-08-26T12:20:20.972Z,8.10
2022-08-26T12:21:51.667Z,6.10
2022-08-26T12:25:48.896Z,5.50
2022-08-26T12:27:18.832Z,6.40
2022-08-26T12:31:47.975Z,2.60
2022-08-26T12:33:47.998Z,4.90
2022-08-26T12:35:45.326Z,5.60
2022-08-26T12:42:13.204Z,6.50
2022-08-26T12:44:12.336Z,8.80
2022-08-26T12:46:39.715Z,14.00
2022-08-26T12:48:09.028Z,5.90
2022-08-26T12:51:43.741Z,7.40
2022-08-26T12:54:11.715Z,4.00
2022-08-26T12:58:10.438Z,7.60
2022-08-26T12:59:39.246Z,6.30
2022-08-26T13:01:10.281Z,7.40
2022-08-26T13:03:06.724Z,8.90
2022-08-26T13:08:04.696Z,11.40
2022-08-26T13:17:50.675Z,6.30
2022-08-26T13:21:44.313Z,7.90
2022-08-26T13:23:14.332Z,5.30
2022-08-26T13:27:08.091Z,7.10
2022-08-26T13:31:31.486Z,3.30
2022-08-26T13:33:58.491Z,8.10
2022-08-26T13:36:25.747Z,5.00
2022-08-26T13:38:33.811Z,7.00
2022-08-26T13:39:54.137Z,8.30
2022-08-26T13:41:29.159Z,4.50
2022-08-26T13:43:24.943Z,4.30
2022-08-26T13:44:54.409Z,3.80
2022-08-26T13:47:22.537Z,3.90
2022-08-26T13:48:51.632Z,9.50
2022-08-26T13:51:00.888Z,8.30
2022-08-26T13:52:34.857Z,7.10
2022-08-26T13:59:47.853Z,5.50
2022-08-26T14:18:50.019Z,3.00
2022-08-26T14:23:13.978Z,7.80
2022-08-26T14:27:33.784Z,6.70
2022-08-26T14:33:53.716Z,5.90
2022-08-26T14:39:02.957Z,2.90
2022-08-26T14:41:33.392Z,6.70
2022-08-26T14:45:00.766Z,7.30
2022-08-26T14:46:30.141Z,15.10
2022-08-26T14:56:16.614Z,5.20
2022-08-26T15:03:02.444Z,6.90
2022-08-26T15:13:15.137Z,5.50
2022-08-26T15:17:10.491Z,5.60
2022-08-26T15:19:37.641Z,4.90
2022-08-26T15:21:35.772Z,2.90
2022-08-26T15:23:06.237Z,4.20
2022-08-26T15:27:29.657Z,5.10
2022-08-26T15:29:27.842Z,6.90
2022-08-26T15:30:56.891Z,5.30
2022-08-26T15:33:23.874Z,4.60
2022-08-26T15:35:22.125Z,4.80
2022-08-26T15:36:51.365Z,3.50
2022-08-26T15:41:44.274Z,7.10
2022-08-26T15:51:56.170Z,4.40
2022-08-26T16:01:44.027Z,2.50
2022-08-26T16:04:11.886Z,6.40
2022-08-26T16:07:08.405Z,4.40
2022-08-26T16:09:06.659Z,4.10
2022-08-26T16:10:35.588Z,2.20
2022-08-26T16:12:33.706Z,6.40
2022-08-26T16:24:05.755Z,2.10
2022-08-26T16:31:24.746Z,5.30
2022-08-26T16:34:21.426Z,6.50
2022-08-26T16:38:17.632Z,3.30
2022-08-26T16:50:27.498Z,5.40
2022-08-26T16:54:21.916Z,6.50
2022-08-26T16:56:49.066Z,2.40
2022-08-26T16:59:45.598Z,4.10
2022-08-26T17:01:14.571Z,7.50
2022-08-26T17:02:43.586Z,3.80
2022-08-26T17:06:38.063Z,4.00
2022-08-26T17:10:03.795Z,7.90
2022-08-26T17:17:50.898Z,3.20
2022-08-26T17:22:14.244Z,6.10
2022-08-26T17:24:12.293Z,3.20
2022-08-26T17:26:39.632Z,3.40
2022-08-26T17:30:05.110Z,7.00
2022-08-26T17:35:27.053Z,3.90
2022-08-26T17:45:40.001Z,4.80
2022-08-26T17:52:28.811Z,7.10
2022-08-26T17:56:24.139Z,4.90
2022-08-26T17:58:23.378Z,5.80
2022-08-26T17:59:50.810Z,6.90
2022-08-26T18:09:04.660Z,7.10
2022-08-26T18:13:28.648Z,6.00
2022-08-26T18:16:54.268Z,6.50
2022-08-26T18:18:52.300Z,4.10
2022-08-26T18:21:19.711Z,2.10
2022-08-26T18:23:18.486Z,3.00
2022-08-26T18:25:15.967Z,2.30
2022-08-26T18:26:45.568Z,5.50
2022-08-26T18:28:43.155Z,4.90
2022-08-26T18:30:16.289Z,3.60
2022-08-26T18:31:45.682Z,8.80
2022-08-26T18:33:43.622Z,2.40
2022-08-26T18:35:12.996Z,5.90
2022-08-26T18:39:08.991Z,3.10
2022-08-26T18:47:25.398Z,3.90
2022-08-26T18:51:48.530Z,3.90
2022-08-26T18:53:17.592Z,2.00
2022-08-26T18:57:31.784Z,4.40
2022-08-26T19:03:23.367Z,2.20
2022-08-26T19:14:07.379Z,5.20
2022-08-26T19:17:33.012Z,1.70
2022-08-26T19:19:04.753Z,3.10
2022-08-26T19:22:01.371Z,1.10
2022-08-26T19:23:31.905Z,4.00
2022-08-26T19:27:26.105Z,4.60
2022-08-26T19:39:36.916Z,3.30
2022-08-26T19:41:36.768Z,5.10
2022-08-26T19:47:25.894Z,1.20
2022-08-26T19:53:45.661Z,4.30
2022-08-26T19:59:07.530Z,2.90
2022-08-26T20:02:07.141Z,5.30
2022-08-26T20:07:00.415Z,3.50
2022-08-26T20:09:25.432Z,5.70
2022-08-26T20:13:19.556Z,6.30
2022-08-26T20:15:18.591Z,6.50
2022-08-26T20:17:16.301Z,4.20
2022-08-26T20:18:45.766Z,4.30
2022-08-26T20:20:32.865Z,6.90
2022-08-26T20:32:35.020Z,3.70
2022-08-26T20:35:56.356Z,2.20
2022-08-26T20:39:21.519Z,2.70
2022-08-26T20:41:19.501Z,4.00
2022-08-26T20:46:18.222Z,4.90
2022-08-26T20:49:31.001Z,5.70
2022-08-26T20:58:46.946Z,2.90
2022-08-26T21:04:30.987Z,5.80
2022-08-26T21:06:58.086Z,4.90
2022-08-26T21:10:53.374Z,5.70
2022-08-26T21:12:51.477Z,1.60
2022-08-26T21:19:52.989Z,3.70
2022-08-26T21:21:27.064Z,3.80
2022-08-26T21:26:35.154Z,5.20
2022-08-26T21:34:32.097Z,5.10
2022-08-26T21:36:27.776Z,5.40
2022-08-26T21:38:54.897Z,3.20
2022-08-26T21:42:22.921Z,3.80
2022-08-26T21:56:47.507Z,5.30
2022-08-26T21:58:16.044Z,6.90
2022-08-26T22:00:14.751Z,4.30
2022-08-26T22:02:13.762Z,3.10
2022-08-26T22:03:47.266Z,5.30
2022-08-26T22:05:12.963Z,6.00
2022-08-26T22:09:40.909Z,5.20
2022-08-26T22:13:04.314Z,3.60
2022-08-26T22:17:29.860Z,3.40
2022-08-26T22:22:42.733Z,5.00
2022-08-26T22:28:48.274Z,4.40
2022-08-26T22:30:47.951Z,4.10
2022-08-26T22:35:29.009Z,3.60
2022-08-26T22:40:36.569Z,3.40
2022-08-26T22:43:05.729Z,1.90
2022-08-26T22:49:02.713Z,5.30
2022-08-26T22:51:30.064Z,3.70
2022-08-26T22:57:21.083Z,2.00
2022-08-26T22:59:59.338Z,3.90
2022-08-26T23:01:57.350Z,7.00
2022-08-26T23:11:12.044Z,7.70
2022-08-26T23:13:10.121Z,3.80
2022-08-26T23:16:06.333Z,5.90
2022-08-26T23:18:33.320Z,5.40
2022-08-26T23:24:53.075Z,5.60
2022-08-26T23:28:18.578Z,3.90
2022-08-26T23:32:13.613Z,6.60
2022-08-26T23:36:07.755Z,5.50
2022-08-26T23:37:36.768Z,4.30
2022-08-26T23:39:34.762Z,7.10
2022-08-26T23:44:01.585Z,4.20
2022-08-26T23:45:57.131Z,3.80
2022-08-26T23:54:18.106Z,2.30
2022-08-26T23:56:17.326Z,7.30
2022-08-26T23:58:43.982Z,2.30
